sensor_id;sensor_type;location;lat;lon;timestamp;pressure;altitude;pressure_sealevel;temperature;humidity
63715;BME280;49858;48.956;9.076;2022-10-16T00:00:10;98640.22;;;16.82;100.00
63715;BME280;49858;48.956;9.076;2022-10-16T00:02:38;98643.41;;;16.67;100.00
63715;BME280;49858;48.956;9.076;2022-10-16T00:05:06;98642.22;;;16.89;100.00
63715;BME280;49858;48.956;9.076;2022-10-16T00:07:34;98632.69;;;16.83;100.00
63715;BME280;49858;48.956;9.076;2022-10-16T00:10:02;98625.13;;;16.83;100.00
63715;BME280;49858;48.956;9.076;2022-10-16T00:12:31;98626.09;;;17.54;100.00
63715;BME280;49858;48.956;9.076;2022-10-16T00:15:00;98604.47;;;17.86;100.00
63715;BME280;49858;48.956;9.076;2022-10-16T00:17:29;98616.09;;;17.63;100.00
63715;BME280;49858;48.956;9.076;2022-10-16T00:19:56;98616.44;;;17.73;100.00
63715;BME280;49858;48.956;9.076;2022-10-16T00:22:24;98618.00;;;16.86;100.00
63715;BME280;49858;48.956;9.076;2022-10-16T00:24:52;98604.09;;;16.86;100.00
63715;BME280;49858;48.956;9.076;2022-10-16T00:27:20;98620.78;;;16.86;100.00
63715;BME280;49858;48.956;9.076;2022-10-16T00:29:49;98613.19;;;17.04;100.00
63715;BME280;49858;48.956;9.076;2022-10-16T00:32:19;98625.53;;;16.71;100.00
63715;BME280;49858;48.956;9.076;2022-10-16T00:34:47;98631.09;;;16.68;100.00
63715;BME280;49858;48.956;9.076;2022-10-16T00:37:14;98635.06;;;16.67;100.00
63715;BME280;49858;48.956;9.076;2022-10-16T00:39:42;98635.44;;;16.97;100.00
63715;BME280;49858;48.956;9.076;2022-10-16T00:42:14;98631.06;;;16.93;100.00
63715;BME280;49858;48.956;9.076;2022-10-16T00:44:48;98633.75;;;17.25;100.00
63715;BME280;49858;48.956;9.076;2022-10-16T00:47:24;98633.50;;;16.73;100.00
63715;BME280;49858;48.956;9.076;2022-10-16T00:49:58;98626.69;;;17.06;100.00
63715;BME280;49858;48.956;9.076;2022-10-16T00:52:26;98639.03;;;16.58;100.00
63715;BME280;49858;48.956;9.076;2022-10-16T00:54:54;98639.03;;;16.48;100.00
63715;BME280;49858;48.956;9.076;2022-10-16T00:57:24;98635.84;;;16.96;100.00
63715;BME280;49858;48.956;9.076;2022-10-16T00:59:53;98628.25;;;17.07;100.00
63715;BME280;49858;48.956;9.076;2022-10-16T01:02:22;98636.47;;;17.43;100.00
63715;BME280;49858;48.956;9.076;2022-10-16T01:04:52;98630.25;;;17.03;100.00
63715;BME280;49858;48.956;9.076;2022-10-16T01:07:30;98638.22;;;16.83;100.00
63715;BME280;49858;48.956;9.076;2022-10-16T01:10:08;98638.66;;;16.85;100.00
63715;BME280;49858;48.956;9.076;2022-10-16T01:12:41;98645.34;;;17.05;100.00
63715;BME280;49858;48.956;9.076;2022-10-16T01:15:17;98639.03;;;16.66;100.00
63715;BME280;49858;48.956;9.076;2022-10-16T01:17:51;98641.81;;;16.66;100.00
63715;BME280;49858;48.956;9.076;2022-10-16T01:20:24;98634.25;;;16.84;100.00
63715;BME280;49858;48.956;9.076;2022-10-16T01:23:02;98635.81;;;17.06;100.00
63715;BME280;49858;48.956;9.076;2022-10-16T01:25:45;98637.38;;;17.18;100.00
63715;BME280;49858;48.956;9.076;2022-10-16T01:28:19;98636.16;;;17.23;100.00
63715;BME280;49858;48.956;9.076;2022-10-16T01:30:52;98646.88;;;17.31;100.00
63715;BME280;49858;48.956;9.076;2022-10-16T01:33:28;98637.28;;;17.36;100.00
63715;BME280;49858;48.956;9.076;2022-10-16T01:35:59;98634.19;;;17.20;100.00
63715;BME280;49858;48.956;9.076;2022-10-16T01:38:34;98643.38;;;16.92;100.00
63715;BME280;49858;48.956;9.076;2022-10-16T01:41:07;98634.19;;;17.20;100.00
63715;BME280;49858;48.956;9.076;2022-10-16T01:43:40;98631.03;;;17.10;100.00
63715;BME280;49858;48.956;9.076;2022-10-16T01:46:10;98640.19;;;16.97;100.00
63715;BME280;49858;48.956;9.076;2022-10-16T01:48:38;98641.34;;;17.06;100.00
63715;BME280;49858;48.956;9.076;2022-10-16T01:51:09;98630.91;;;17.46;100.00
63715;BME280;49858;48.956;9.076;2022-10-16T01:53:40;98628.16;;;18.12;100.00
63715;BME280;49858;48.956;9.076;2022-10-16T01:56:11;98618.66;;;18.06;100.00
63715;BME280;49858;48.956;9.076;2022-10-16T01:58:45;98616.94;;;18.27;100.00
63715;BME280;49858;48.956;9.076;2022-10-16T02:01:17;98625.22;;;17.68;100.00
63715;BME280;49858;48.956;9.076;2022-10-16T02:03:48;98618.53;;;18.21;100.00
63715;BME280;49858;48.956;9.076;2022-10-16T02:06:19;98625.28;;;17.60;100.00
63715;BME280;49858;48.956;9.076;2022-10-16T02:08:48;98618.38;;;17.86;100.00
63715;BME280;49858;48.956;9.076;2022-10-16T02:11:15;98617.38;;;17.55;100.00
63715;BME280;49858;48.956;9.076;2022-10-16T02:13:46;98621.31;;;17.54;100.00
63715;BME280;49858;48.956;9.076;2022-10-16T02:16:15;98624.22;;;17.29;100.00
63715;BME280;49858;48.956;9.076;2022-10-16T02:18:43;98631.00;;;18.02;100.00
63715;BME280;49858;48.956;9.076;2022-10-16T02:21:16;98643.78;;;17.96;100.00
63715;BME280;49858;48.956;9.076;2022-10-16T02:23:48;98629.69;;;18.21;100.00
63715;BME280;49858;48.956;9.076;2022-10-16T02:26:24;98631.09;;;17.91;100.00
63715;BME280;49858;48.956;9.076;2022-10-16T02:29:00;98627.88;;;17.96;100.00
63715;BME280;49858;48.956;9.076;2022-10-16T02:31:33;98625.75;;;18.18;100.00
63715;BME280;49858;48.956;9.076;2022-10-16T02:34:04;98626.50;;;18.26;100.00
63715;BME280;49858;48.956;9.076;2022-10-16T02:36:34;98628.66;;;18.49;100.00
63715;BME280;49858;48.956;9.076;2022-10-16T02:39:04;98633.50;;;17.89;100.00
63715;BME280;49858;48.956;9.076;2022-10-16T02:41:32;98639.03;;;17.93;100.00
63715;BME280;49858;48.956;9.076;2022-10-16T02:44:02;98638.03;;;17.51;100.00
63715;BME280;49858;48.956;9.076;2022-10-16T02:46:29;98641.44;;;17.87;100.00
63715;BME280;49858;48.956;9.076;2022-10-16T02:48:57;98636.72;;;17.77;100.00
63715;BME280;49858;48.956;9.076;2022-10-16T02:51:25;98637.38;;;17.15;100.00
63715;BME280;49858;48.956;9.076;2022-10-16T02:53:53;98631.81;;;17.15;100.00
63715;BME280;49858;48.956;9.076;2022-10-16T02:56:20;98643.34;;;17.02;100.00
63715;BME280;49858;48.956;9.076;2022-10-16T02:58:48;98648.50;;;17.18;100.00
63715;BME280;49858;48.956;9.076;2022-10-16T03:01:17;98647.66;;;17.21;100.00
63715;BME280;49858;48.956;9.076;2022-10-16T03:03:45;98651.72;;;16.88;100.00
63715;BME280;49858;48.956;9.076;2022-10-16T03:06:13;98655.69;;;16.87;100.00
63715;BME280;49858;48.956;9.076;2022-10-16T03:08:40;98648.81;;;17.31;100.00
63715;BME280;49858;48.956;9.076;2022-10-16T03:11:08;98651.31;;;17.00;100.00
63715;BME280;49858;48.956;9.076;2022-10-16T03:13:36;98652.53;;;16.71;100.00
63715;BME280;49858;48.956;9.076;2022-10-16T03:16:04;98652.13;;;16.83;100.00
63715;BME280;49858;48.956;9.076;2022-10-16T03:18:33;98652.50;;;16.89;100.00
63715;BME280;49858;48.956;9.076;2022-10-16T03:21:00;98646.53;;;16.94;100.00
63715;BME280;49858;48.956;9.076;2022-10-16T03:23:28;98654.91;;;16.79;100.00
63715;BME280;49858;48.956;9.076;2022-10-16T03:26:01;98650.94;;;16.59;100.00
63715;BME280;49858;48.956;9.076;2022-10-16T03:28:29;98666.03;;;16.61;100.00
63715;BME280;49858;48.956;9.076;2022-10-16T03:30:57;98662.06;;;16.66;100.00
63715;BME280;49858;48.956;9.076;2022-10-16T03:33:24;98662.84;;;16.70;100.00
63715;BME280;49858;48.956;9.076;2022-10-16T03:35:54;98663.22;;;16.69;100.00
63715;BME280;49858;48.956;9.076;2022-10-16T03:38:22;98649.75;;;16.71;100.00
63715;BME280;49858;48.956;9.076;2022-10-16T03:40:50;98652.16;;;16.72;100.00
63715;BME280;49858;48.956;9.076;2022-10-16T03:43:18;98660.84;;;16.46;100.00
63715;BME280;49858;48.956;9.076;2022-10-16T03:45:45;98653.31;;;16.71;100.00
63715;BME280;49858;48.956;9.076;2022-10-16T03:48:13;98646.53;;;17.04;100.00
63715;BME280;49858;48.956;9.076;2022-10-16T03:50:41;98650.91;;;17.09;100.00
63715;BME280;49858;48.956;9.076;2022-10-16T03:53:10;98648.56;;;16.82;100.00
63715;BME280;49858;48.956;9.076;2022-10-16T03:55:38;98663.59;;;17.06;100.00
63715;BME280;49858;48.956;9.076;2022-10-16T03:58:05;98660.41;;;17.19;100.00
63715;BME280;49858;48.956;9.076;2022-10-16T04:00:33;98649.22;;;17.36;100.00
63715;BME280;49858;48.956;9.076;2022-10-16T04:03:01;98650.53;;;17.03;100.00
63715;BME280;49858;48.956;9.076;2022-10-16T04:05:29;98653.31;;;16.89;100.00
63715;BME280;49858;48.956;9.076;2022-10-16T04:07:57;98656.47;;;16.88;100.00
63715;BME280;49858;48.956;9.076;2022-10-16T04:10:26;98666.00;;;16.83;100.00
63715;BME280;49858;48.956;9.076;2022-10-16T04:12:54;98656.09;;;16.82;100.00
63715;BME280;49858;48.956;9.076;2022-10-16T04:15:22;98668.38;;;16.99;100.00
63715;BME280;49858;48.956;9.076;2022-10-16T04:17:50;98661.19;;;17.23;100.00
63715;BME280;49858;48.956;9.076;2022-10-16T04:20:18;98662.44;;;17.00;100.00
63715;BME280;49858;48.956;9.076;2022-10-16T04:22:46;98657.94;;;17.38;100.00
63715;BME280;49858;48.956;9.076;2022-10-16T04:25:14;98653.13;;;17.50;100.00
63715;BME280;49858;48.956;9.076;2022-10-16T04:27:43;98663.75;;;17.73;100.00
63715;BME280;49858;48.956;9.076;2022-10-16T04:30:12;98654.97;;;17.88;100.00
63715;BME280;49858;48.956;9.076;2022-10-16T04:32:40;98669.63;;;17.96;100.00
63715;BME280;49858;48.956;9.076;2022-10-16T04:35:08;98667.63;;;17.97;100.00
63715;BME280;49858;48.956;9.076;2022-10-16T04:37:36;98681.56;;;17.93;100.00
63715;BME280;49858;48.956;9.076;2022-10-16T04:40:05;98672.47;;;17.85;100.00
63715;BME280;49858;48.956;9.076;2022-10-16T04:42:32;98674.56;;;17.60;100.00
63715;BME280;49858;48.956;9.076;2022-10-16T04:45:02;98675.78;;;17.52;100.00
63715;BME280;49858;48.956;9.076;2022-10-16T04:47:29;98683.72;;;17.50;100.00
63715;BME280;49858;48.956;9.076;2022-10-16T04:49:57;98694.75;;;17.78;100.00
63715;BME280;49858;48.956;9.076;2022-10-16T04:52:28;98691.69;;;17.44;100.00
63715;BME280;49858;48.956;9.076;2022-10-16T04:54:57;98696.91;;;17.21;100.00
63715;BME280;49858;48.956;9.076;2022-10-16T04:57:29;98706.84;;;16.50;100.00
63715;BME280;49858;48.956;9.076;2022-10-16T04:59:57;98709.66;;;16.61;100.00
63715;BME280;49858;48.956;9.076;2022-10-16T05:02:26;98710.44;;;16.58;100.00
63715;BME280;49858;48.956;9.076;2022-10-16T05:04:54;98707.66;;;16.44;100.00
63715;BME280;49858;48.956;9.076;2022-10-16T05:07:22;98717.19;;;16.68;100.00
63715;BME280;49858;48.956;9.076;2022-10-16T05:09:50;98709.69;;;16.75;100.00
63715;BME280;49858;48.956;9.076;2022-10-16T05:12:18;98708.88;;;16.82;100.00
63715;BME280;49858;48.956;9.076;2022-10-16T05:14:45;98702.50;;;17.10;100.00
63715;BME280;49858;48.956;9.076;2022-10-16T05:17:13;98696.13;;;17.17;100.00
63715;BME280;49858;48.956;9.076;2022-10-16T05:19:42;98697.63;;;17.53;100.00
63715;BME280;49858;48.956;9.076;2022-10-16T05:22:10;98686.44;;;17.68;100.00
63715;BME280;49858;48.956;9.076;2022-10-16T05:24:38;98700.75;;;17.62;100.00
63715;BME280;49858;48.956;9.076;2022-10-16T05:27:06;98699.91;;;17.73;100.00
63715;BME280;49858;48.956;9.076;2022-10-16T05:29:33;98693.66;;;17.44;100.00
63715;BME280;49858;48.956;9.076;2022-10-16T05:32:01;98706.00;;;17.39;100.00
63715;BME280;49858;48.956;9.076;2022-10-16T05:34:29;98700.47;;;17.25;100.00
63715;BME280;49858;48.956;9.076;2022-10-16T05:36:58;98704.88;;;17.15;100.00
63715;BME280;49858;48.956;9.076;2022-10-16T05:39:26;98702.88;;;17.23;100.00
63715;BME280;49858;48.956;9.076;2022-10-16T05:41:53;98703.31;;;16.96;100.00
63715;BME280;49858;48.956;9.076;2022-10-16T05:44:21;98704.53;;;16.81;100.00
63715;BME280;49858;48.956;9.076;2022-10-16T05:46:49;98716.69;;;15.98;100.00
63715;BME280;49858;48.956;9.076;2022-10-16T05:49:16;98729.38;;;15.95;100.00
63715;BME280;49858;48.956;9.076;2022-10-16T05:51:44;98724.88;;;15.66;100.00
63715;BME280;49858;48.956;9.076;2022-10-16T05:54:14;98737.28;;;15.86;100.00
63715;BME280;49858;48.956;9.076;2022-10-16T05:56:42;98744.41;;;15.94;100.00
63715;BME280;49858;48.956;9.076;2022-10-16T05:59:09;98746.03;;;16.06;100.00
63715;BME280;49858;48.956;9.076;2022-10-16T06:01:37;98748.47;;;16.22;100.00
63715;BME280;49858;48.956;9.076;2022-10-16T06:04:05;98747.75;;;16.57;100.00
63715;BME280;49858;48.956;9.076;2022-10-16T06:06:33;98740.63;;;16.92;100.00
63715;BME280;49858;48.956;9.076;2022-10-16T06:09:03;98739.44;;;17.03;100.00
63715;BME280;49858;48.956;9.076;2022-10-16T06:11:33;98725.09;;;17.37;100.00
63715;BME280;49858;48.956;9.076;2022-10-16T06:14:02;98721.56;;;17.22;100.00
63715;BME280;49858;48.956;9.076;2022-10-16T06:16:34;98735.88;;;16.78;100.00
63715;BME280;49858;48.956;9.076;2022-10-16T06:19:03;98745.31;;;16.30;100.00
63715;BME280;49858;48.956;9.076;2022-10-16T06:21:32;98750.50;;;16.39;100.00
63715;BME280;49858;48.956;9.076;2022-10-16T06:24:00;98733.38;;;16.23;100.00
63715;BME280;49858;48.956;9.076;2022-10-16T06:26:30;98732.94;;;15.99;100.00
63715;BME280;49858;48.956;9.076;2022-10-16T06:29:00;98750.88;;;16.30;100.00
63715;BME280;49858;48.956;9.076;2022-10-16T06:31:28;98754.03;;;16.29;100.00
63715;BME280;49858;48.956;9.076;2022-10-16T06:33:57;98757.94;;;16.06;100.00
63715;BME280;49858;48.956;9.076;2022-10-16T06:36:26;98755.59;;;16.16;100.00
63715;BME280;49858;48.956;9.076;2022-10-16T06:38:54;98758.00;;;16.35;100.00
63715;BME280;49858;48.956;9.076;2022-10-16T06:41:22;98768.72;;;16.33;100.00
63715;BME280;49858;48.956;9.076;2022-10-16T06:43:50;98772.78;;;16.82;100.00
63715;BME280;49858;48.956;9.076;2022-10-16T06:46:22;98782.72;;;17.01;100.00
63715;BME280;49858;48.956;9.076;2022-10-16T06:48:50;98771.16;;;17.17;100.00
63715;BME280;49858;48.956;9.076;2022-10-16T06:51:19;98763.22;;;17.29;100.00
63715;BME280;49858;48.956;9.076;2022-10-16T06:53:49;98783.50;;;16.94;100.00
63715;BME280;49858;48.956;9.076;2022-10-16T06:56:29;98781.50;;;17.34;100.00
63715;BME280;49858;48.956;9.076;2022-10-16T06:58:58;98781.88;;;17.25;100.00
63715;BME280;49858;48.956;9.076;2022-10-16T07:01:28;98781.84;;;17.57;100.00
63715;BME280;49858;48.956;9.076;2022-10-16T07:03:56;98788.97;;;17.69;100.00
63715;BME280;49858;48.956;9.076;2022-10-16T07:06:25;98793.28;;;17.92;100.00
63715;BME280;49858;48.956;9.076;2022-10-16T07:08:54;98784.84;;;18.13;100.00
63715;BME280;49858;48.956;9.076;2022-10-16T07:11:29;98798.78;;;18.17;100.00
63715;BME280;49858;48.956;9.076;2022-10-16T07:13:57;98803.19;;;18.03;100.00
63715;BME280;49858;48.956;9.076;2022-10-16T07:16:27;98805.63;;;17.87;100.00
63715;BME280;49858;48.956;9.076;2022-10-16T07:18:55;98809.97;;;17.99;100.00
63715;BME280;49858;48.956;9.076;2022-10-16T07:21:29;98808.75;;;18.00;100.00
63715;BME280;49858;48.956;9.076;2022-10-16T07:23:58;98810.00;;;17.88;100.00
63715;BME280;49858;48.956;9.076;2022-10-16T07:26:29;98813.13;;;18.01;100.00
63715;BME280;49858;48.956;9.076;2022-10-16T07:28:57;98821.97;;;17.56;100.00
63715;BME280;49858;48.956;9.076;2022-10-16T07:31:27;98815.59;;;17.77;100.00
63715;BME280;49858;48.956;9.076;2022-10-16T07:33:55;98817.59;;;17.62;100.00
63715;BME280;49858;48.956;9.076;2022-10-16T07:36:25;98834.69;;;16.79;100.00
63715;BME280;49858;48.956;9.076;2022-10-16T07:38:52;98834.19;;;16.48;100.00
63715;BME280;49858;48.956;9.076;2022-10-16T07:41:25;98837.00;;;16.59;100.00
63715;BME280;49858;48.956;9.076;2022-10-16T07:43:54;98838.97;;;16.58;100.00
63715;BME280;49858;48.956;9.076;2022-10-16T07:46:23;98834.22;;;16.70;100.00
63715;BME280;49858;48.956;9.076;2022-10-16T07:48:52;98840.66;;;16.92;100.00
63715;BME280;49858;48.956;9.076;2022-10-16T07:51:21;98839.47;;;17.07;100.00
63715;BME280;49858;48.956;9.076;2022-10-16T07:53:51;98845.81;;;17.40;100.00
63715;BME280;49858;48.956;9.076;2022-10-16T07:56:19;98837.38;;;18.00;100.00
63715;BME280;49858;48.956;9.076;2022-10-16T07:58:47;98843.97;;;18.42;100.00
63715;BME280;49858;48.956;9.076;2022-10-16T08:01:17;98835.47;;;18.78;100.00
63715;BME280;49858;48.956;9.076;2022-10-16T08:03:47;98846.63;;;18.78;100.00
63715;BME280;49858;48.956;9.076;2022-10-16T08:06:16;98839.28;;;18.98;100.00
63715;BME280;49858;48.956;9.076;2022-10-16T08:08:50;98844.97;;;18.84;100.00
63715;BME280;49858;48.956;9.076;2022-10-16T08:11:18;98845.00;;;18.77;100.00
63715;BME280;49858;48.956;9.076;2022-10-16T08:13:46;98859.38;;;19.31;100.00
63715;BME280;49858;48.956;9.076;2022-10-16T08:16:14;98850.88;;;19.45;100.00
63715;BME280;49858;48.956;9.076;2022-10-16T08:18:41;98845.59;;;19.54;100.00
63715;BME280;49858;48.956;9.076;2022-10-16T08:21:13;98843.78;;;19.33;100.00
63715;BME280;49858;48.956;9.076;2022-10-16T08:23:48;98852.34;;;19.57;100.00
63715;BME280;49858;48.956;9.076;2022-10-16T08:26:23;98846.25;;;19.73;100.00
63715;BME280;49858;48.956;9.076;2022-10-16T08:28:51;98848.31;;;19.65;100.00
63715;BME280;49858;48.956;9.076;2022-10-16T08:31:20;98855.41;;;19.73;100.00
63715;BME280;49858;48.956;9.076;2022-10-16T08:33:48;98862.53;;;19.33;100.00
63715;BME280;49858;48.956;9.076;2022-10-16T08:36:16;98864.75;;;19.52;100.00
63715;BME280;49858;48.956;9.076;2022-10-16T08:38:49;98874.28;;;19.62;100.00
63715;BME280;49858;48.956;9.076;2022-10-16T08:41:36;98873.56;;;18.95;100.00
63715;BME280;49858;48.956;9.076;2022-10-16T08:44:41;98865.56;;;19.53;100.00
63715;BME280;49858;48.956;9.076;2022-10-16T08:47:17;98864.59;;;19.74;100.00
63715;BME280;49858;48.956;9.076;2022-10-16T08:49:54;98863.03;;;19.21;100.00
63715;BME280;49858;48.956;9.076;2022-10-16T08:52:25;98875.88;;;19.07;100.00
63715;BME280;49858;48.956;9.076;2022-10-16T08:55:00;98868.22;;;19.19;100.00
63715;BME280;49858;48.956;9.076;2022-10-16T08:57:31;98867.34;;;19.29;100.00
63715;BME280;49858;48.956;9.076;2022-10-16T09:00:05;98873.63;;;19.40;100.00
63715;BME280;49858;48.956;9.076;2022-10-16T09:02:34;98866.16;;;19.30;100.00
63715;BME280;49858;48.956;9.076;2022-10-16T09:05:11;98868.97;;;19.71;100.00
63715;BME280;49858;48.956;9.076;2022-10-16T09:07:47;98873.78;;;19.71;100.00
63715;BME280;49858;48.956;9.076;2022-10-16T09:10:29;98872.13;;;19.77;100.00
63715;BME280;49858;48.956;9.076;2022-10-16T09:13:11;98873.44;;;19.65;100.00
63715;BME280;49858;48.956;9.076;2022-10-16T09:15:47;98880.13;;;19.75;100.00
63715;BME280;49858;48.956;9.076;2022-10-16T09:18:22;98877.72;;;19.77;100.00
63715;BME280;49858;48.956;9.076;2022-10-16T09:21:01;98872.78;;;20.90;100.00
63715;BME280;49858;48.956;9.076;2022-10-16T09:23:35;98875.81;;;21.27;100.00
63715;BME280;49858;48.956;9.076;2022-10-16T09:26:09;98875.94;;;22.13;100.00
63715;BME280;49858;48.956;9.076;2022-10-16T09:28:39;98880.81;;;22.69;100.00
63715;BME280;49858;48.956;9.076;2022-10-16T09:31:13;98878.56;;;23.33;100.00
63715;BME280;49858;48.956;9.076;2022-10-16T09:33:44;98880.44;;;23.72;100.00
63715;BME280;49858;48.956;9.076;2022-10-16T09:36:13;98883.03;;;24.66;100.00
63715;BME280;49858;48.956;9.076;2022-10-16T09:38:41;98881.34;;;23.33;100.00
63715;BME280;49858;48.956;9.076;2022-10-16T09:41:16;98890.44;;;25.28;100.00
63715;BME280;49858;48.956;9.076;2022-10-16T09:43:51;98891.06;;;24.81;100.00
63715;BME280;49858;48.956;9.076;2022-10-16T09:46:24;98888.69;;;24.66;100.00
63715;BME280;49858;48.956;9.076;2022-10-16T09:48:55;98904.59;;;23.17;100.00
63715;BME280;49858;48.956;9.076;2022-10-16T09:51:25;98892.84;;;23.22;100.00
63715;BME280;49858;48.956;9.076;2022-10-16T09:53:58;98892.38;;;24.05;100.00
63715;BME280;49858;48.956;9.076;2022-10-16T09:56:29;98891.91;;;23.78;100.00
63715;BME280;49858;48.956;9.076;2022-10-16T09:59:00;98894.97;;;23.34;100.00
63715;BME280;49858;48.956;9.076;2022-10-16T10:01:30;98902.88;;;23.39;100.00
63715;BME280;49858;48.956;9.076;2022-10-16T10:03:59;98906.31;;;22.94;100.00
63715;BME280;49858;48.956;9.076;2022-10-16T10:06:30;98907.81;;;22.79;100.00
63715;BME280;49858;48.956;9.076;2022-10-16T10:09:04;98910.22;;;22.21;100.00
63715;BME280;49858;48.956;9.076;2022-10-16T10:11:44;98905.50;;;25.46;100.00
63715;BME280;49858;48.956;9.076;2022-10-16T10:14:17;98907.22;;;24.64;100.00
63715;BME280;49858;48.956;9.076;2022-10-16T10:16:47;98905.28;;;22.85;100.00
63715;BME280;49858;48.956;9.076;2022-10-16T10:19:16;98901.13;;;24.23;100.00
63715;BME280;49858;48.956;9.076;2022-10-16T10:21:44;98902.69;;;24.54;100.00
63715;BME280;49858;48.956;9.076;2022-10-16T10:24:13;98910.69;;;23.64;100.00
63715;BME280;49858;48.956;9.076;2022-10-16T10:26:48;98913.97;;;22.54;100.00
63715;BME280;49858;48.956;9.076;2022-10-16T10:29:24;98914.22;;;24.72;100.00
63715;BME280;49858;48.956;9.076;2022-10-16T10:32:04;98917.03;;;23.68;100.00
63715;BME280;49858;48.956;9.076;2022-10-16T10:34:51;98922.81;;;23.78;100.00
63715;BME280;49858;48.956;9.076;2022-10-16T10:37:33;98914.44;;;24.78;100.00
63715;BME280;49858;48.956;9.076;2022-10-16T10:40:09;98913.03;;;23.50;100.00
63715;BME280;49858;48.956;9.076;2022-10-16T10:42:46;98911.50;;;24.68;100.00
63715;BME280;49858;48.956;9.076;2022-10-16T10:45:26;98916.69;;;24.70;100.00
63715;BME280;49858;48.956;9.076;2022-10-16T10:48:16;98920.41;;;23.60;100.00
63715;BME280;49858;48.956;9.076;2022-10-16T10:50:50;98917.16;;;23.94;100.00
63715;BME280;49858;48.956;9.076;2022-10-16T10:53:29;98919.25;;;24.52;100.00
63715;BME280;49858;48.956;9.076;2022-10-16T10:56:07;98914.81;;;24.38;100.00
63715;BME280;49858;48.956;9.076;2022-10-16T10:58:53;98912.78;;;24.93;100.00
63715;BME280;49858;48.956;9.076;2022-10-16T11:01:31;98917.44;;;25.25;100.00
63715;BME280;49858;48.956;9.076;2022-10-16T11:04:54;98919.28;;;24.77;100.00
63715;BME280;49858;48.956;9.076;2022-10-16T11:07:26;98912.72;;;27.17;100.00
63715;BME280;49858;48.956;9.076;2022-10-16T11:09:58;98917.13;;;27.27;100.00
63715;BME280;49858;48.956;9.076;2022-10-16T11:12:31;98904.78;;;26.50;100.00
63715;BME280;49858;48.956;9.076;2022-10-16T11:15:04;98905.25;;;28.56;82.95
63715;BME280;49858;48.956;9.076;2022-10-16T11:17:39;98898.09;;;28.88;78.75
63715;BME280;49858;48.956;9.076;2022-10-16T11:20:14;98902.22;;;24.97;100.00
63715;BME280;49858;48.956;9.076;2022-10-16T11:22:47;98903.22;;;23.58;100.00
63715;BME280;49858;48.956;9.076;2022-10-16T11:25:21;98908.38;;;23.10;100.00
63715;BME280;49858;48.956;9.076;2022-10-16T11:27:52;98903.59;;;24.51;100.00
63715;BME280;49858;48.956;9.076;2022-10-16T11:30:25;98898.75;;;26.04;100.00
63715;BME280;49858;48.956;9.076;2022-10-16T11:33:15;98898.91;;;26.66;90.16
63715;BME280;49858;48.956;9.076;2022-10-16T11:35:49;98901.44;;;25.60;100.00
63715;BME280;49858;48.956;9.076;2022-10-16T11:38:27;98896.59;;;25.48;100.00
63715;BME280;49858;48.956;9.076;2022-10-16T11:40:59;98893.09;;;26.61;99.80
63715;BME280;49858;48.956;9.076;2022-10-16T11:43:32;98900.06;;;25.78;98.06
63715;BME280;49858;48.956;9.076;2022-10-16T11:46:11;98914.28;;;24.56;100.00
63715;BME280;49858;48.956;9.076;2022-10-16T11:48:43;98910.09;;;25.53;100.00
63715;BME280;49858;48.956;9.076;2022-10-16T11:51:16;98910.22;;;24.28;100.00
63715;BME280;49858;48.956;9.076;2022-10-16T11:53:53;98902.59;;;25.37;100.00
63715;BME280;49858;48.956;9.076;2022-10-16T11:56:24;98909.81;;;25.13;100.00
63715;BME280;49858;48.956;9.076;2022-10-16T11:58:56;98900.97;;;25.49;97.34
63715;BME280;49858;48.956;9.076;2022-10-16T12:01:31;98906.69;;;26.18;92.97
63715;BME280;49858;48.956;9.076;2022-10-16T12:04:16;98895.56;;;26.81;87.79
63715;BME280;49858;48.956;9.076;2022-10-16T12:06:49;98896.75;;;27.82;79.89
63715;BME280;49858;48.956;9.076;2022-10-16T12:09:22;98892.97;;;27.85;79.68
63715;BME280;49858;48.956;9.076;2022-10-16T12:11:52;98905.72;;;28.54;73.25
63715;BME280;49858;48.956;9.076;2022-10-16T12:14:38;98903.84;;;27.96;82.65
63715;BME280;49858;48.956;9.076;2022-10-16T12:17:34;98898.72;;;26.83;89.40
63715;BME280;49858;48.956;9.076;2022-10-16T12:20:26;98899.41;;;27.27;86.69
63715;BME280;49858;48.956;9.076;2022-10-16T12:22:55;98901.25;;;27.70;84.23
63715;BME280;49858;48.956;9.076;2022-10-16T12:25:26;98899.75;;;27.88;81.79
63715;BME280;49858;48.956;9.076;2022-10-16T12:27:57;98896.28;;;28.75;76.71
63715;BME280;49858;48.956;9.076;2022-10-16T12:30:27;98902.84;;;29.00;77.29
63715;BME280;49858;48.956;9.076;2022-10-16T12:33:03;98893.19;;;29.40;76.48
63715;BME280;49858;48.956;9.076;2022-10-16T12:35:34;98890.84;;;29.05;70.88
63715;BME280;49858;48.956;9.076;2022-10-16T12:38:16;98890.78;;;29.23;70.86
63715;BME280;49858;48.956;9.076;2022-10-16T12:40:45;98884.31;;;28.81;75.80
63715;BME280;49858;48.956;9.076;2022-10-16T12:43:36;98890.13;;;28.77;71.90
63715;BME280;49858;48.956;9.076;2022-10-16T12:46:20;98886.03;;;28.69;78.00
63715;BME280;49858;48.956;9.076;2022-10-16T12:48:50;98878.03;;;28.67;77.67
63715;BME280;49858;48.956;9.076;2022-10-16T12:51:35;98884.16;;;29.84;70.91
63715;BME280;49858;48.956;9.076;2022-10-16T12:54:11;98875.28;;;29.91;66.44
63715;BME280;49858;48.956;9.076;2022-10-16T12:56:48;98883.13;;;29.06;66.73
63715;BME280;49858;48.956;9.076;2022-10-16T12:59:28;98893.16;;;28.00;75.70
63715;BME280;49858;48.956;9.076;2022-10-16T13:02:16;98884.06;;;27.96;72.91
63715;BME280;49858;48.956;9.076;2022-10-16T13:05:06;98896.44;;;28.08;75.66
63715;BME280;49858;48.956;9.076;2022-10-16T13:07:54;98898.97;;;27.38;80.31
63715;BME280;49858;48.956;9.076;2022-10-16T13:10:28;98896.84;;;26.89;88.45
63715;BME280;49858;48.956;9.076;2022-10-16T13:13:12;98904.06;;;26.90;91.21